sensor_id;sensor_type;location;lat;lon;timestamp;P1;durP1;ratioP1;P2;durP2;ratioP2
26718;SDS011;14326;50.794;6.060;2022-10-16T00:01:58;6.38;;;1.88;;
26718;SDS011;14326;50.794;6.060;2022-10-16T00:04:25;6.30;;;1.60;;
26718;SDS011;14326;50.794;6.060;2022-10-16T00:06:51;2.25;;;1.10;;
26718;SDS011;14326;50.794;6.060;2022-10-16T00:09:20;5.43;;;1.35;;
26718;SDS011;14326;50.794;6.060;2022-10-16T00:11:46;2.25;;;1.27;;
26718;SDS011;14326;50.794;6.060;2022-10-16T00:14:14;5.75;;;1.25;;
26718;SDS011;14326;50.794;6.060;2022-10-16T00:16:41;3.90;;;1.25;;
26718;SDS011;14326;50.794;6.060;2022-10-16T00:19:08;3.80;;;1.30;;
26718;SDS011;14326;50.794;6.060;2022-10-16T00:21:36;5.10;;;1.38;;
26718;SDS011;14326;50.794;6.060;2022-10-16T00:24:06;5.07;;;1.30;;
26718;SDS011;14326;50.794;6.060;2022-10-16T00:26:34;4.72;;;1.25;;
26718;SDS011;14326;50.794;6.060;2022-10-16T00:29:02;2.85;;;0.93;;
26718;SDS011;14326;50.794;6.060;2022-10-16T00:31:30;5.60;;;1.88;;
26718;SDS011;14326;50.794;6.060;2022-10-16T00:33:57;3.80;;;1.17;;
26718;SDS011;14326;50.794;6.060;2022-10-16T00:36:25;3.80;;;0.93;;
26718;SDS011;14326;50.794;6.060;2022-10-16T00:41:26;4.57;;;1.05;;
26718;SDS011;14326;50.794;6.060;2022-10-16T00:47:17;3.17;;;1.10;;
26718;SDS011;14326;50.794;6.060;2022-10-16T00:49:58;5.22;;;1.13;;
26718;SDS011;14326;50.794;6.060;2022-10-16T00:52:41;3.67;;;1.00;;
26718;SDS011;14326;50.794;6.060;2022-10-16T00:55:13;2.60;;;1.05;;
26718;SDS011;14326;50.794;6.060;2022-10-16T00:57:43;2.65;;;1.15;;
26718;SDS011;14326;50.794;6.060;2022-10-16T01:00:18;8.38;;;1.10;;
26718;SDS011;14326;50.794;6.060;2022-10-16T01:02:53;2.08;;;1.17;;
26718;SDS011;14326;50.794;6.060;2022-10-16T01:05:28;1.95;;;1.00;;
26718;SDS011;14326;50.794;6.060;2022-10-16T01:08:17;2.78;;;0.98;;
26718;SDS011;14326;50.794;6.060;2022-10-16T01:10:54;1.92;;;0.80;;
26718;SDS011;14326;50.794;6.060;2022-10-16T01:13:43;2.67;;;0.88;;
26718;SDS011;14326;50.794;6.060;2022-10-16T01:16:21;4.68;;;1.00;;
26718;SDS011;14326;50.794;6.060;2022-10-16T01:18:59;1.55;;;0.50;;
26718;SDS011;14326;50.794;6.060;2022-10-16T01:21:36;4.82;;;0.90;;
26718;SDS011;14326;50.794;6.060;2022-10-16T01:24:21;2.50;;;0.70;;
26718;SDS011;14326;50.794;6.060;2022-10-16T01:27:12;3.97;;;1.17;;
26718;SDS011;14326;50.794;6.060;2022-10-16T01:29:49;3.45;;;0.90;;
26718;SDS011;14326;50.794;6.060;2022-10-16T01:32:24;2.70;;;0.85;;
26718;SDS011;14326;50.794;6.060;2022-10-16T01:34:58;2.70;;;0.77;;
26718;SDS011;14326;50.794;6.060;2022-10-16T01:37:35;5.47;;;0.90;;
26718;SDS011;14326;50.794;6.060;2022-10-16T01:40:14;3.67;;;0.82;;
26718;SDS011;14326;50.794;6.060;2022-10-16T01:42:59;2.50;;;0.90;;
26718;SDS011;14326;50.794;6.060;2022-10-16T01:45:29;3.65;;;1.02;;
26718;SDS011;14326;50.794;6.060;2022-10-16T01:48:01;2.60;;;0.88;;
26718;SDS011;14326;50.794;6.060;2022-10-16T01:50:33;1.88;;;0.70;;
26718;SDS011;14326;50.794;6.060;2022-10-16T01:53:09;2.33;;;0.85;;
26718;SDS011;14326;50.794;6.060;2022-10-16T01:55:40;2.90;;;0.73;;
26718;SDS011;14326;50.794;6.060;2022-10-16T01:58:12;3.53;;;0.90;;
26718;SDS011;14326;50.794;6.060;2022-10-16T02:00:42;1.90;;;0.73;;
26718;SDS011;14326;50.794;6.060;2022-10-16T02:03:30;4.88;;;0.98;;
26718;SDS011;14326;50.794;6.060;2022-10-16T02:06:04;2.00;;;0.65;;
26718;SDS011;14326;50.794;6.060;2022-10-16T02:08:31;3.38;;;1.00;;
26718;SDS011;14326;50.794;6.060;2022-10-16T02:11:03;4.38;;;0.93;;
26718;SDS011;14326;50.794;6.060;2022-10-16T02:13:33;2.90;;;1.00;;
26718;SDS011;14326;50.794;6.060;2022-10-16T02:16:05;4.68;;;0.95;;
26718;SDS011;14326;50.794;6.060;2022-10-16T02:18:32;2.13;;;0.93;;
26718;SDS011;14326;50.794;6.060;2022-10-16T02:20:59;2.75;;;1.00;;
26718;SDS011;14326;50.794;6.060;2022-10-16T02:23:33;3.20;;;0.77;;
26718;SDS011;14326;50.794;6.060;2022-10-16T02:26:03;5.80;;;1.10;;
26718;SDS011;14326;50.794;6.060;2022-10-16T02:28:35;4.95;;;1.10;;
26718;SDS011;14326;50.794;6.060;2022-10-16T02:31:08;3.15;;;1.13;;
26718;SDS011;14326;50.794;6.060;2022-10-16T02:33:37;4.47;;;1.08;;
26718;SDS011;14326;50.794;6.060;2022-10-16T02:36:06;3.33;;;1.20;;
26718;SDS011;14326;50.794;6.060;2022-10-16T02:38:34;4.22;;;1.25;;
26718;SDS011;14326;50.794;6.060;2022-10-16T02:41:01;2.92;;;1.00;;
26718;SDS011;14326;50.794;6.060;2022-10-16T02:43:29;6.07;;;1.15;;
26718;SDS011;14326;50.794;6.060;2022-10-16T02:45:57;3.22;;;0.80;;
26718;SDS011;14326;50.794;6.060;2022-10-16T02:48:24;5.70;;;1.17;;
26718;SDS011;14326;50.794;6.060;2022-10-16T02:50:51;3.45;;;1.25;;
26718;SDS011;14326;50.794;6.060;2022-10-16T02:53:17;2.05;;;1.10;;
26718;SDS011;14326;50.794;6.060;2022-10-16T02:55:44;4.45;;;1.35;;
26718;SDS011;14326;50.794;6.060;2022-10-16T02:58:11;5.63;;;1.20;;
26718;SDS011;14326;50.794;6.060;2022-10-16T03:00:38;3.05;;;1.40;;
26718;SDS011;14326;50.794;6.060;2022-10-16T03:03:05;2.97;;;1.13;;
26718;SDS011;14326;50.794;6.060;2022-10-16T03:05:32;3.00;;;1.38;;
26718;SDS011;14326;50.794;6.060;2022-10-16T03:07:59;3.78;;;1.55;;
26718;SDS011;14326;50.794;6.060;2022-10-16T03:10:26;5.60;;;1.50;;
26718;SDS011;14326;50.794;6.060;2022-10-16T03:12:53;5.28;;;1.50;;
26718;SDS011;14326;50.794;6.060;2022-10-16T03:15:19;6.00;;;1.45;;
26718;SDS011;14326;50.794;6.060;2022-10-16T03:17:46;5.32;;;1.20;;
26718;SDS011;14326;50.794;6.060;2022-10-16T03:20:14;4.50;;;1.35;;
26718;SDS011;14326;50.794;6.060;2022-10-16T03:22:43;2.85;;;1.38;;
26718;SDS011;14326;50.794;6.060;2022-10-16T03:25:12;5.35;;;1.42;;
26718;SDS011;14326;50.794;6.060;2022-10-16T03:27:45;3.13;;;1.30;;
26718;SDS011;14326;50.794;6.060;2022-10-16T03:32:59;5.70;;;1.60;;
26718;SDS011;14326;50.794;6.060;2022-10-16T03:35:33;6.00;;;1.45;;
26718;SDS011;14326;50.794;6.060;2022-10-16T03:38:10;6.93;;;1.50;;
26718;SDS011;14326;50.794;6.060;2022-10-16T03:40:38;5.80;;;1.63;;
26718;SDS011;14326;50.794;6.060;2022-10-16T03:43:17;6.80;;;1.60;;
26718;SDS011;14326;50.794;6.060;2022-10-16T03:45:47;6.03;;;1.83;;
26718;SDS011;14326;50.794;6.060;2022-10-16T03:48:21;4.70;;;1.90;;
26718;SDS011;14326;50.794;6.060;2022-10-16T03:53:27;6.28;;;2.08;;
26718;SDS011;14326;50.794;6.060;2022-10-16T03:55:53;7.38;;;1.42;;
26718;SDS011;14326;50.794;6.060;2022-10-16T03:58:33;7.18;;;1.50;;
26718;SDS011;14326;50.794;6.060;2022-10-16T04:01:10;2.95;;;1.55;;
26718;SDS011;14326;50.794;6.060;2022-10-16T04:03:40;3.50;;;1.80;;
26718;SDS011;14326;50.794;6.060;2022-10-16T04:06:23;5.93;;;1.67;;
26718;SDS011;14326;50.794;6.060;2022-10-16T04:08:54;3.92;;;1.70;;
26718;SDS011;14326;50.794;6.060;2022-10-16T04:11:29;7.65;;;2.00;;
26718;SDS011;14326;50.794;6.060;2022-10-16T04:14:04;4.47;;;1.80;;
26718;SDS011;14326;50.794;6.060;2022-10-16T04:16:30;5.47;;;1.60;;
26718;SDS011;14326;50.794;6.060;2022-10-16T04:18:57;5.55;;;1.80;;
26718;SDS011;14326;50.794;6.060;2022-10-16T04:21:25;10.57;;;1.92;;
26718;SDS011;14326;50.794;6.060;2022-10-16T04:23:51;6.90;;;2.13;;
26718;SDS011;14326;50.794;6.060;2022-10-16T04:26:18;4.95;;;2.08;;
26718;SDS011;14326;50.794;6.060;2022-10-16T04:28:45;4.75;;;1.63;;
26718;SDS011;14326;50.794;6.060;2022-10-16T04:31:11;2.80;;;1.40;;
26718;SDS011;14326;50.794;6.060;2022-10-16T04:33:38;9.40;;;2.00;;
26718;SDS011;14326;50.794;6.060;2022-10-16T04:36:05;5.20;;;1.90;;
26718;SDS011;14326;50.794;6.060;2022-10-16T04:38:33;5.95;;;1.80;;
26718;SDS011;14326;50.794;6.060;2022-10-16T04:40:59;4.57;;;1.70;;
26718;SDS011;14326;50.794;6.060;2022-10-16T04:43:26;7.55;;;2.03;;
26718;SDS011;14326;50.794;6.060;2022-10-16T04:45:53;4.38;;;1.85;;
26718;SDS011;14326;50.794;6.060;2022-10-16T04:48:20;6.70;;;2.13;;
26718;SDS011;14326;50.794;6.060;2022-10-16T04:50:46;5.15;;;1.80;;
26718;SDS011;14326;50.794;6.060;2022-10-16T04:53:13;6.60;;;2.15;;
26718;SDS011;14326;50.794;6.060;2022-10-16T04:55:42;4.88;;;2.25;;
26718;SDS011;14326;50.794;6.060;2022-10-16T04:58:09;6.50;;;1.88;;
26718;SDS011;14326;50.794;6.060;2022-10-16T05:00:35;5.97;;;2.40;;
26718;SDS011;14326;50.794;6.060;2022-10-16T05:03:03;4.32;;;2.00;;
26718;SDS011;14326;50.794;6.060;2022-10-16T05:05:32;7.00;;;2.33;;
26718;SDS011;14326;50.794;6.060;2022-10-16T05:07:59;5.80;;;1.90;;
26718;SDS011;14326;50.794;6.060;2022-10-16T05:10:25;5.25;;;2.10;;
26718;SDS011;14326;50.794;6.060;2022-10-16T05:12:54;12.13;;;2.50;;
26718;SDS011;14326;50.794;6.060;2022-10-16T05:15:21;6.63;;;1.95;;
26718;SDS011;14326;50.794;6.060;2022-10-16T05:17:51;7.25;;;2.00;;
26718;SDS011;14326;50.794;6.060;2022-10-16T05:20:18;9.75;;;2.38;;
26718;SDS011;14326;50.794;6.060;2022-10-16T05:22:45;4.05;;;1.70;;
26718;SDS011;14326;50.794;6.060;2022-10-16T05:25:12;7.18;;;2.17;;
26718;SDS011;14326;50.794;6.060;2022-10-16T05:27:38;4.00;;;2.15;;
26718;SDS011;14326;50.794;6.060;2022-10-16T05:30:07;4.65;;;1.90;;
26718;SDS011;14326;50.794;6.060;2022-10-16T05:32:34;4.93;;;2.08;;
26718;SDS011;14326;50.794;6.060;2022-10-16T05:35:00;10.57;;;2.58;;
26718;SDS011;14326;50.794;6.060;2022-10-16T05:37:27;7.85;;;2.28;;
26718;SDS011;14326;50.794;6.060;2022-10-16T05:39:53;6.40;;;2.60;;
26718;SDS011;14326;50.794;6.060;2022-10-16T05:42:20;7.57;;;2.33;;
26718;SDS011;14326;50.794;6.060;2022-10-16T05:44:47;5.25;;;2.13;;
26718;SDS011;14326;50.794;6.060;2022-10-16T05:47:15;5.65;;;2.40;;
26718;SDS011;14326;50.794;6.060;2022-10-16T05:49:41;6.97;;;2.20;;
26718;SDS011;14326;50.794;6.060;2022-10-16T05:52:08;6.78;;;2.30;;
26718;SDS011;14326;50.794;6.060;2022-10-16T05:54:34;8.63;;;2.53;;
26718;SDS011;14326;50.794;6.060;2022-10-16T05:57:01;10.05;;;2.90;;
26718;SDS011;14326;50.794;6.060;2022-10-16T05:59:30;5.53;;;1.85;;
26718;SDS011;14326;50.794;6.060;2022-10-16T06:01:57;8.75;;;2.67;;
26718;SDS011;14326;50.794;6.060;2022-10-16T06:04:25;6.82;;;2.45;;
26718;SDS011;14326;50.794;6.060;2022-10-16T06:06:51;7.68;;;2.42;;
26718;SDS011;14326;50.794;6.060;2022-10-16T06:09:18;7.07;;;2.40;;
26718;SDS011;14326;50.794;6.060;2022-10-16T06:11:44;7.57;;;2.35;;
26718;SDS011;14326;50.794;6.060;2022-10-16T06:14:11;8.98;;;2.88;;
26718;SDS011;14326;50.794;6.060;2022-10-16T06:16:38;5.65;;;2.55;;
26718;SDS011;14326;50.794;6.060;2022-10-16T06:19:04;8.85;;;2.60;;
26718;SDS011;14326;50.794;6.060;2022-10-16T06:21:34;7.25;;;2.70;;
26718;SDS011;14326;50.794;6.060;2022-10-16T06:24:01;10.85;;;2.40;;
26718;SDS011;14326;50.794;6.060;2022-10-16T06:26:29;6.20;;;2.50;;
26718;SDS011;14326;50.794;6.060;2022-10-16T06:28:57;8.63;;;2.55;;
26718;SDS011;14326;50.794;6.060;2022-10-16T06:31:24;7.82;;;2.35;;
26718;SDS011;14326;50.794;6.060;2022-10-16T06:33:53;9.63;;;2.40;;
26718;SDS011;14326;50.794;6.060;2022-10-16T06:36:20;6.40;;;2.10;;
26718;SDS011;14326;50.794;6.060;2022-10-16T06:38:48;10.98;;;2.53;;
26718;SDS011;14326;50.794;6.060;2022-10-16T06:41:16;5.70;;;2.28;;
26718;SDS011;14326;50.794;6.060;2022-10-16T06:43:44;8.20;;;2.08;;
26718;SDS011;14326;50.794;6.060;2022-10-16T06:46:13;6.13;;;2.28;;
26718;SDS011;14326;50.794;6.060;2022-10-16T06:48:41;8.30;;;2.38;;
26718;SDS011;14326;50.794;6.060;2022-10-16T06:51:09;7.97;;;2.40;;
26718;SDS011;14326;50.794;6.060;2022-10-16T06:53:38;7.22;;;1.98;;
26718;SDS011;14326;50.794;6.060;2022-10-16T06:56:09;7.50;;;1.85;;
26718;SDS011;14326;50.794;6.060;2022-10-16T06:58:36;3.80;;;1.50;;
26718;SDS011;14326;50.794;6.060;2022-10-16T07:01:03;8.00;;;2.35;;
26718;SDS011;14326;50.794;6.060;2022-10-16T07:03:30;4.60;;;2.10;;
26718;SDS011;14326;50.794;6.060;2022-10-16T07:06:00;11.07;;;2.40;;
26718;SDS011;14326;50.794;6.060;2022-10-16T07:08:27;6.00;;;1.77;;
26718;SDS011;14326;50.794;6.060;2022-10-16T07:10:59;6.65;;;2.67;;
26718;SDS011;14326;50.794;6.060;2022-10-16T07:15:54;8.63;;;1.60;;
26718;SDS011;14326;50.794;6.060;2022-10-16T07:18:21;5.57;;;1.50;;
26718;SDS011;14326;50.794;6.060;2022-10-16T07:20:51;4.57;;;1.17;;
26718;SDS011;14326;50.794;6.060;2022-10-16T07:23:17;4.93;;;1.60;;
26718;SDS011;14326;50.794;6.060;2022-10-16T07:25:44;3.50;;;1.27;;
26718;SDS011;14326;50.794;6.060;2022-10-16T07:28:11;3.92;;;2.10;;
26718;SDS011;14326;50.794;6.060;2022-10-16T07:30:39;5.32;;;1.15;;
26718;SDS011;14326;50.794;6.060;2022-10-16T07:33:05;3.53;;;1.23;;
26718;SDS011;14326;50.794;6.060;2022-10-16T07:35:32;5.82;;;1.17;;
26718;SDS011;14326;50.794;6.060;2022-10-16T07:37:58;9.32;;;1.20;;
26718;SDS011;14326;50.794;6.060;2022-10-16T07:40:25;4.15;;;1.15;;
26718;SDS011;14326;50.794;6.060;2022-10-16T07:42:53;4.72;;;1.08;;
26718;SDS011;14326;50.794;6.060;2022-10-16T07:45:19;4.55;;;1.20;;
26718;SDS011;14326;50.794;6.060;2022-10-16T07:47:47;7.10;;;1.30;;
26718;SDS011;14326;50.794;6.060;2022-10-16T07:50:14;6.88;;;1.40;;
26718;SDS011;14326;50.794;6.060;2022-10-16T07:52:41;4.13;;;1.08;;
26718;SDS011;14326;50.794;6.060;2022-10-16T07:55:08;5.03;;;1.10;;
26718;SDS011;14326;50.794;6.060;2022-10-16T07:57:34;4.93;;;0.98;;
26718;SDS011;14326;50.794;6.060;2022-10-16T08:00:01;7.93;;;1.50;;
26718;SDS011;14326;50.794;6.060;2022-10-16T08:02:29;5.10;;;1.15;;
26718;SDS011;14326;50.794;6.060;2022-10-16T08:04:57;2.92;;;0.95;;
26718;SDS011;14326;50.794;6.060;2022-10-16T08:07:23;5.60;;;1.15;;
26718;SDS011;14326;50.794;6.060;2022-10-16T08:09:50;5.10;;;1.10;;
26718;SDS011;14326;50.794;6.060;2022-10-16T08:12:17;7.60;;;1.50;;
26718;SDS011;14326;50.794;6.060;2022-10-16T08:14:44;2.80;;;0.82;;
26718;SDS011;14326;50.794;6.060;2022-10-16T08:17:13;5.65;;;1.20;;
26718;SDS011;14326;50.794;6.060;2022-10-16T08:19:43;5.88;;;0.95;;
26718;SDS011;14326;50.794;6.060;2022-10-16T08:22:12;3.67;;;1.30;;
26718;SDS011;14326;50.794;6.060;2022-10-16T08:24:38;7.43;;;1.15;;
26718;SDS011;14326;50.794;6.060;2022-10-16T08:27:06;4.68;;;1.17;;
26718;SDS011;14326;50.794;6.060;2022-10-16T08:29:34;2.92;;;1.00;;
26718;SDS011;14326;50.794;6.060;2022-10-16T08:32:00;6.82;;;1.00;;
26718;SDS011;14326;50.794;6.060;2022-10-16T08:34:27;5.07;;;1.00;;
26718;SDS011;14326;50.794;6.060;2022-10-16T08:36:53;6.25;;;1.10;;
26718;SDS011;14326;50.794;6.060;2022-10-16T08:39:21;5.03;;;1.02;;
26718;SDS011;14326;50.794;6.060;2022-10-16T08:42:04;4.30;;;1.05;;
26718;SDS011;14326;50.794;6.060;2022-10-16T08:48:00;2.78;;;0.88;;
26718;SDS011;14326;50.794;6.060;2022-10-16T08:50:40;3.53;;;0.93;;
26718;SDS011;14326;50.794;6.060;2022-10-16T08:53:09;3.38;;;0.73;;
26718;SDS011;14326;50.794;6.060;2022-10-16T08:55:42;4.22;;;1.10;;
26718;SDS011;14326;50.794;6.060;2022-10-16T08:58:12;2.42;;;0.77;;
26718;SDS011;14326;50.794;6.060;2022-10-16T09:00:40;3.33;;;0.73;;
26718;SDS011;14326;50.794;6.060;2022-10-16T09:03:11;5.10;;;1.10;;
26718;SDS011;14326;50.794;6.060;2022-10-16T09:08:36;4.78;;;1.02;;
26718;SDS011;14326;50.794;6.060;2022-10-16T09:11:13;5.72;;;0.80;;
26718;SDS011;14326;50.794;6.060;2022-10-16T09:13:48;6.25;;;0.77;;
26718;SDS011;14326;50.794;6.060;2022-10-16T09:16:22;2.83;;;0.70;;
26718;SDS011;14326;50.794;6.060;2022-10-16T09:18:54;2.83;;;1.02;;
26718;SDS011;14326;50.794;6.060;2022-10-16T09:21:27;3.95;;;1.00;;
26718;SDS011;14326;50.794;6.060;2022-10-16T09:23:57;10.73;;;1.20;;
26718;SDS011;14326;50.794;6.060;2022-10-16T09:26:26;3.83;;;0.80;;
26718;SDS011;14326;50.794;6.060;2022-10-16T09:28:53;5.57;;;1.02;;
26718;SDS011;14326;50.794;6.060;2022-10-16T09:31:20;4.20;;;0.80;;
26718;SDS011;14326;50.794;6.060;2022-10-16T09:33:50;6.50;;;1.40;;
26718;SDS011;14326;50.794;6.060;2022-10-16T09:36:19;1.33;;;0.60;;
26718;SDS011;14326;50.794;6.060;2022-10-16T09:38:48;3.38;;;0.68;;
26718;SDS011;14326;50.794;6.060;2022-10-16T09:41:16;3.40;;;0.93;;
26718;SDS011;14326;50.794;6.060;2022-10-16T09:46:22;3.42;;;0.80;;
26718;SDS011;14326;50.794;6.060;2022-10-16T09:48:53;1.30;;;0.75;;
26718;SDS011;14326;50.794;6.060;2022-10-16T09:51:23;3.85;;;0.88;;
26718;SDS011;14326;50.794;6.060;2022-10-16T09:53:55;8.45;;;1.02;;
26718;SDS011;14326;50.794;6.060;2022-10-16T09:56:25;3.60;;;0.80;;
26718;SDS011;14326;50.794;6.060;2022-10-16T09:58:56;2.63;;;1.00;;
26718;SDS011;14326;50.794;6.060;2022-10-16T10:01:26;6.20;;;1.30;;
26718;SDS011;14326;50.794;6.060;2022-10-16T10:03:59;3.53;;;0.90;;
26718;SDS011;14326;50.794;6.060;2022-10-16T10:06:28;3.80;;;1.05;;
26718;SDS011;14326;50.794;6.060;2022-10-16T10:08:57;2.65;;;0.73;;
26718;SDS011;14326;50.794;6.060;2022-10-16T10:11:45;5.20;;;0.97;;
26718;SDS011;14326;50.794;6.060;2022-10-16T10:14:26;4.03;;;0.80;;
26718;SDS011;14326;50.794;6.060;2022-10-16T10:19:48;5.57;;;1.10;;
26718;SDS011;14326;50.794;6.060;2022-10-16T10:22:17;2.80;;;1.10;;
26718;SDS011;14326;50.794;6.060;2022-10-16T10:24:54;2.35;;;0.98;;
26718;SDS011;14326;50.794;6.060;2022-10-16T10:27:22;2.70;;;0.95;;
26718;SDS011;14326;50.794;6.060;2022-10-16T10:30:01;3.97;;;0.82;;
26718;SDS011;14326;50.794;6.060;2022-10-16T10:32:36;6.63;;;1.60;;
26718;SDS011;14326;50.794;6.060;2022-10-16T10:35:13;6.85;;;1.05;;
26718;SDS011;14326;50.794;6.060;2022-10-16T10:37:50;3.60;;;0.70;;
26718;SDS011;14326;50.794;6.060;2022-10-16T10:40:30;5.47;;;0.70;;
26718;SDS011;14326;50.794;6.060;2022-10-16T10:43:07;4.60;;;0.95;;
26718;SDS011;14326;50.794;6.060;2022-10-16T10:45:46;2.97;;;0.80;;
26718;SDS011;14326;50.794;6.060;2022-10-16T10:48:23;4.70;;;0.80;;
26718;SDS011;14326;50.794;6.060;2022-10-16T10:51:10;2.38;;;0.60;;
26718;SDS011;14326;50.794;6.060;2022-10-16T10:53:42;2.75;;;0.80;;
26718;SDS011;14326;50.794;6.060;2022-10-16T10:56:21;7.65;;;1.00;;
26718;SDS011;14326;50.794;6.060;2022-10-16T11:02:04;2.78;;;1.08;;
26718;SDS011;14326;50.794;6.060;2022-10-16T11:04:44;3.65;;;1.20;;
26718;SDS011;14326;50.794;6.060;2022-10-16T11:07:24;1.58;;;0.88;;
26718;SDS011;14326;50.794;6.060;2022-10-16T11:09:55;3.55;;;0.90;;
26718;SDS011;14326;50.794;6.060;2022-10-16T11:12:29;5.93;;;0.88;;
26718;SDS011;14326;50.794;6.060;2022-10-16T11:15:02;4.35;;;0.93;;
26718;SDS011;14326;50.794;6.060;2022-10-16T11:17:38;3.03;;;0.90;;
26718;SDS011;14326;50.794;6.060;2022-10-16T11:20:11;4.57;;;1.08;;
26718;SDS011;14326;50.794;6.060;2022-10-16T11:22:42;3.38;;;1.05;;
26718;SDS011;14326;50.794;6.060;2022-10-16T11:25:13;3.20;;;0.70;;
26718;SDS011;14326;50.794;6.060;2022-10-16T11:27:44;3.25;;;1.23;;
26718;SDS011;14326;50.794;6.060;2022-10-16T11:30:17;3.95;;;0.93;;
26718;SDS011;14326;50.794;6.060;2022-10-16T11:32:52;5.40;;;0.90;;
26718;SDS011;14326;50.794;6.060;2022-10-16T11:35:29;5.85;;;0.90;;
26718;SDS011;14326;50.794;6.060;2022-10-16T11:38:07;7.20;;;1.00;;
26718;SDS011;14326;50.794;6.060;2022-10-16T11:40:41;3.40;;;0.60;;
26718;SDS011;14326;50.794;6.060;2022-10-16T11:43:13;4.70;;;0.82;;
26718;SDS011;14326;50.794;6.060;2022-10-16T11:45:43;6.38;;;1.00;;
26718;SDS011;14326;50.794;6.060;2022-10-16T11:48:20;3.47;;;0.70;;
26718;SDS011;14326;50.794;6.060;2022-10-16T11:50:54;3.47;;;0.68;;
26718;SDS011;14326;50.794;6.060;2022-10-16T11:53:33;5.32;;;0.88;;
26718;SDS011;14326;50.794;6.060;2022-10-16T11:56:11;4.10;;;0.70;;
26718;SDS011;14326;50.794;6.060;2022-10-16T11:58:41;2.20;;;0.50;;
26718;SDS011;14326;50.794;6.060;2022-10-16T12:01:16;6.82;;;0.82;;
26718;SDS011;14326;50.794;6.060;2022-10-16T12:03:53;5.68;;;0.80;;
26718;SDS011;14326;50.794;6.060;2022-10-16T12:06:31;3.55;;;1.00;;
26718;SDS011;14326;50.794;6.060;2022-10-16T12:09:03;6.05;;;1.02;;
26718;SDS011;14326;50.794;6.060;2022-10-16T12:11:31;5.72;;;0.63;;
26718;SDS011;14326;50.794;6.060;2022-10-16T12:14:05;6.57;;;0.80;;
26718;SDS011;14326;50.794;6.060;2022-10-16T12:16:33;4.72;;;0.80;;
26718;SDS011;14326;50.794;6.060;2022-10-16T12:19:09;4.38;;;0.75;;
26718;SDS011;14326;50.794;6.060;2022-10-16T12:21:37;4.32;;;0.85;;
26718;SDS011;14326;50.794;6.060;2022-10-16T12:24:04;4.53;;;1.00;;
26718;SDS011;14326;50.794;6.060;2022-10-16T12:26:32;5.68;;;0.80;;
26718;SDS011;14326;50.794;6.060;2022-10-16T12:29:14;5.80;;;0.90;;
26718;SDS011;14326;50.794;6.060;2022-10-16T12:31:54;1.67;;;0.60;;
26718;SDS011;14326;50.794;6.060;2022-10-16T12:34:23;5.82;;;1.05;;
26718;SDS011;14326;50.794;6.060;2022-10-16T12:36:55;2.65;;;0.68;;
26718;SDS011;14326;50.794;6.060;2022-10-16T12:39:33;3.53;;;0.80;;
26718;SDS011;14326;50.794;6.060;2022-10-16T12:42:03;4.65;;;0.93;;
26718;SDS011;14326;50.794;6.060;2022-10-16T12:44:32;4.82;;;1.05;;
26718;SDS011;14326;50.794;6.060;2022-10-16T12:47:00;2.70;;;0.73;;
26718;SDS011;14326;50.794;6.060;2022-10-16T12:49:34;7.78;;;1.05;;
26718;SDS011;14326;50.794;6.060;2022-10-16T12:52:04;4.55;;;0.90;;
26718;SDS011;14326;50.794;6.060;2022-10-16T12:54:46;3.85;;;0.50;;
26718;SDS011;14326;50.794;6.060;2022-10-16T12:57:18;5.00;;;0.85;;
26718;SDS011;14326;50.794;6.060;2022-10-16T13:00:00;2.90;;;0.70;;
26718;SDS011;14326;50.794;6.060;2022-10-16T13:02:48;9.13;;;1.10;;
26718;SDS011;14326;50.794;6.060;2022-10-16T13:05:25;2.35;;;0.47;;
26718;SDS011;14326;50.794;6.060;2022-10-16T13:08:04;4.75;;;0.90;;
26718;SDS011;14326;50.794;6.060;2022-10-16T13:10:46;3.78;;;0.70;;
26718;SDS011;14326;50.794;6.060;2022-10-16T13:13:26;4.20;;;0.52;;
26718;SDS011;14326;50.794;6.060;2022-10-16T13:16:08;3.08;;;0.43;;
26718;SDS011;14326;50.794;6.060;2022-10-16T13:18:47;5.72;;;0.63;;
26718;SDS011;14326;50.794;6.060;2022-10-16T13:21:31;2.83;;;0.60;;
26718;SDS011;14326;50.794;6.060;2022-10-16T13:24:09;4.10;;;0.80;;
26718;SDS011;14326;50.794;6.060;2022-10-16T13:26:48;2.05;;;0.70;;
26718;SDS011;14326;50.794;6.060;2022-10-16T13:29:20;4.72;;;0.80;;
26718;SDS011;14326;50.794;6.060;2022-10-16T13:31:48;1.90;;;0.63;;
26718;SDS011;14326;50.794;6.060;2022-10-16T13:34:16;5.63;;;1.48;;
26718;SDS011;14326;50.794;6.060;2022-10-16T13:36:47;2.67;;;0.82;;
26718;SDS011;14326;50.794;6.060;2022-10-16T13:39:20;2.33;;;0.52;;
26718;SDS011;14326;50.794;6.060;2022-10-16T13:41:57;1.20;;;0.55;;
26718;SDS011;14326;50.794;6.060;2022-10-16T13:44:27;3.85;;;0.60;;
26718;SDS011;14326;50.794;6.060;2022-10-16T13:47:02;1.17;;;0.50;;
26718;SDS011;14326;50.794;6.060;2022-10-16T13:49:29;3.03;;;0.57;;
26718;SDS011;14326;50.794;6.060;2022-10-16T13:51:57;5.70;;;0.70;;
26718;SDS011;14326;50.794;6.060;2022-10-16T13:54:25;6.68;;;0.95;;
26718;SDS011;14326;50.794;6.060;2022-10-16T13:56:53;2.90;;;0.40;;
26718;SDS011;14326;50.794;6.060;2022-10-16T13:59:24;2.53;;;0.65;;
26718;SDS011;14326;50.794;6.060;2022-10-16T14:01:53;3.13;;;0.70;;
26718;SDS011;14326;50.794;6.060;2022-10-16T14:04:23;4.05;;;0.85;;
26718;SDS011;14326;50.794;6.060;2022-10-16T14:06:53;5.95;;;0.77;;
26718;SDS011;14326;50.794;6.060;2022-10-16T14:09:25;4.63;;;0.75;;
26718;SDS011;14326;50.794;6.060;2022-10-16T14:11:54;4.07;;;0.70;;
26718;SDS011;14326;50.794;6.060;2022-10-16T14:14:25;5.03;;;1.00;;
26718;SDS011;14326;50.794;6.060;2022-10-16T14:16:57;3.15;;;0.70;;
26718;SDS011;14326;50.794;6.060;2022-10-16T14:19:25;2.85;;;0.80;;
26718;SDS011;14326;50.794;6.060;2022-10-16T14:24:26;3.97;;;0.85;;
26718;SDS011;14326;50.794;6.060;2022-10-16T14:26:57;1.35;;;0.52;;
26718;SDS011;14326;50.794;6.060;2022-10-16T14:29:25;0.85;;;0.60;;
26718;SDS011;14326;50.794;6.060;2022-10-16T14:31:54;5.68;;;0.95;;
26718;SDS011;14326;50.794;6.060;2022-10-16T14:34:26;1.73;;;0.60;;
26718;SDS011;14326;50.794;6.060;2022-10-16T14:36:55;2.60;;;0.50;;
26718;SDS011;14326;50.794;6.060;2022-10-16T14:39:22;3.20;;;0.50;;
26718;SDS011;14326;50.794;6.060;2022-10-16T14:41:54;0.82;;;0.40;;
26718;SDS011;14326;50.794;6.060;2022-10-16T14:44:25;3.90;;;0.73;;
26718;SDS011;14326;50.794;6.060;2022-10-16T14:46:55;3.80;;;0.57;;
26718;SDS011;14326;50.794;6.060;2022-10-16T14:49:22;3.22;;;1.10;;
26718;SDS011;14326;50.794;6.060;2022-10-16T14:51:50;4.13;;;0.50;;
26718;SDS011;14326;50.794;6.060;2022-10-16T14:54:18;3.20;;;0.80;;
26718;SDS011;14326;50.794;6.060;2022-10-16T14:56:47;1.25;;;0.50;;
26718;SDS011;14326;50.794;6.060;2022-10-16T14:59:19;1.00;;;0.43;;
26718;SDS011;14326;50.794;6.060;2022-10-16T15:01:51;4.00;;;0.85;;
26718;SDS011;14326;50.794;6.060;2022-10-16T15:04:18;3.30;;;0.88;;
26718;SDS011;14326;50.794;6.060;2022-10-16T15:06:45;3.35;;;1.05;;
26718;SDS011;14326;50.794;6.060;2022-10-16T15:09:12;3.20;;;0.82;;
26718;SDS011;14326;50.794;6.060;2022-10-16T15:11:39;3.22;;;0.80;;
26718;SDS011;14326;50.794;6.060;2022-10-16T15:14:08;15.35;;;4.63;;
26718;SDS011;14326;50.794;6.060;2022-10-16T15:16:41;8.60;;;1.10;;
26718;SDS011;14326;50.794;6.060;2022-10-16T15:19:08;1.45;;;0.50;;
26718;SDS011;14326;50.794;6.060;2022-10-16T15:21:47;3.95;;;0.75;;
26718;SDS011;14326;50.794;6.060;2022-10-16T15:24:33;0.85;;;0.40;;
26718;SDS011;14326;50.794;6.060;2022-10-16T15:27:00;2.50;;;0.50;;
26718;SDS011;14326;50.794;6.060;2022-10-16T15:29:27;2.40;;;0.63;;
26718;SDS011;14326;50.794;6.060;2022-10-16T15:31:55;1.48;;;0.57;;
26718;SDS011;14326;50.794;6.060;2022-10-16T15:34:22;2.78;;;0.80;;
26718;SDS011;14326;50.794;6.060;2022-10-16T15:36:49;4.80;;;0.90;;
26718;SDS011;14326;50.794;6.060;2022-10-16T15:39:16;4.13;;;0.65;;
26718;SDS011;14326;50.794;6.060;2022-10-16T15:41:44;4.32;;;0.85;;